createdAt,value
2023-03-04T00:00:25.942Z,0.00
2023-03-04T00:01:25.936Z,0.00
2023-03-04T00:02:25.940Z,0.00
2023-03-04T00:03:25.976Z,0.00
2023-03-04T00:04:25.897Z,0.00
2023-03-04T00:05:25.884Z,0.00
2023-03-04T00:06:25.879Z,0.00
2023-03-04T00:07:25.861Z,0.00
2023-03-04T00:08:25.868Z,0.00
2023-03-04T00:09:25.838Z,0.00
2023-03-04T00:10:25.829Z,0.00
2023-03-04T00:11:25.809Z,0.00
2023-03-04T00:12:25.806Z,0.00
2023-03-04T00:13:25.788Z,0.00
2023-03-04T00:14:25.802Z,0.00
2023-03-04T00:15:25.775Z,0.00
2023-03-04T00:16:25.794Z,0.00
2023-03-04T00:17:25.787Z,0.00
2023-03-04T00:18:25.734Z,0.00
2023-03-04T00:19:25.734Z,0.00
2023-03-04T00:20:25.712Z,0.00
2023-03-04T00:21:25.701Z,0.00
2023-03-04T00:22:25.714Z,0.00
2023-03-04T00:23:25.686Z,0.00
2023-03-04T00:24:25.708Z,0.00
2023-03-04T00:25:25.665Z,0.00
2023-03-04T00:26:25.665Z,0.00
2023-03-04T00:27:25.640Z,0.00
2023-03-04T00:28:25.635Z,0.00
2023-03-04T00:29:25.614Z,0.00
2023-03-04T00:30:25.605Z,0.00
2023-03-04T00:31:25.618Z,0.00
2023-03-04T00:32:25.632Z,0.00
2023-03-04T00:33:25.567Z,0.00
2023-03-04T00:34:25.562Z,0.00
2023-03-04T00:35:25.580Z,0.00
2023-03-04T00:36:25.544Z,0.00
2023-03-04T00:37:25.527Z,0.00
2023-03-04T00:38:25.520Z,0.00
2023-03-04T00:39:25.506Z,0.00
2023-03-04T00:40:25.521Z,0.00
2023-03-04T00:41:25.489Z,0.00
2023-03-04T00:42:25.470Z,0.00
2023-03-04T00:43:25.462Z,0.00
2023-03-04T00:44:25.447Z,0.00
2023-03-04T00:45:25.440Z,0.00
2023-03-04T00:46:25.448Z,0.00
2023-03-04T00:47:25.415Z,0.00
2023-03-04T00:48:25.404Z,0.00
2023-03-04T00:49:25.407Z,0.00
2023-03-04T00:50:25.441Z,0.00
2023-03-04T00:51:25.365Z,0.00
2023-03-04T00:52:25.354Z,0.00
2023-03-04T00:53:25.346Z,0.00
2023-03-04T00:54:25.342Z,0.00
2023-03-04T00:55:25.329Z,0.00
2023-03-04T00:56:25.333Z,0.00
2023-03-04T00:57:25.309Z,0.00
2023-03-04T00:58:25.292Z,0.00
2023-03-04T00:59:25.276Z,0.00
2023-03-04T01:00:25.281Z,0.00
2023-03-04T01:01:25.320Z,0.00
2023-03-04T01:02:25.303Z,0.00
2023-03-04T01:03:25.240Z,0.00
2023-03-04T01:04:25.227Z,0.00
2023-03-04T01:05:25.209Z,0.00
2023-03-04T01:06:25.198Z,0.00
2023-03-04T01:07:25.189Z,0.00
2023-03-04T01:08:25.186Z,0.00
2023-03-04T01:09:25.165Z,0.00
2023-03-04T01:10:25.174Z,0.00
2023-03-04T01:11:25.148Z,0.00
2023-03-04T01:12:25.168Z,0.00
2023-03-04T01:13:25.128Z,0.00
2023-03-04T01:14:25.120Z,0.00
2023-03-04T01:15:25.101Z,0.00
2023-03-04T01:16:25.140Z,0.00
2023-03-04T01:17:25.084Z,0.00
2023-03-04T01:18:25.066Z,0.00
2023-03-04T01:19:25.058Z,0.00
2023-03-04T01:20:25.051Z,0.00
2023-03-04T01:21:25.054Z,0.00
2023-03-04T01:22:25.021Z,0.00
2023-03-04T01:23:25.014Z,0.00
2023-03-04T01:24:25.002Z,0.00
2023-03-04T01:25:25.002Z,0.00
2023-03-04T01:26:24.981Z,0.00
2023-03-04T01:27:24.983Z,0.00
2023-03-04T01:28:24.975Z,0.00
2023-03-04T01:29:24.946Z,0.00
2023-03-04T01:30:24.944Z,0.00
2023-03-04T01:31:24.920Z,0.00
2023-03-04T01:32:24.966Z,0.00
2023-03-04T01:33:24.898Z,0.00
2023-03-04T01:34:24.887Z,0.00
2023-03-04T01:35:24.911Z,0.00
2023-03-04T01:36:24.868Z,0.00
2023-03-04T01:37:24.862Z,0.00
2023-03-04T01:38:24.863Z,0.00
2023-03-04T01:39:24.856Z,0.00
2023-03-04T01:40:24.833Z,0.00
2023-03-04T01:41:24.821Z,0.00
2023-03-04T01:42:24.804Z,0.00
2023-03-04T01:43:24.793Z,0.00
2023-03-04T01:44:24.813Z,0.00
2023-03-04T01:45:24.800Z,0.00
2023-03-04T01:46:24.827Z,0.00
2023-03-04T01:47:24.751Z,0.00
2023-03-04T01:48:24.736Z,0.00
2023-03-04T01:49:24.735Z,0.00
2023-03-04T01:50:24.729Z,0.00
2023-03-04T01:51:24.712Z,0.00
2023-03-04T01:52:24.700Z,0.00
2023-03-04T01:53:24.694Z,0.00
2023-03-04T01:54:24.680Z,0.00
2023-03-04T01:55:24.670Z,0.00
2023-03-04T01:56:24.648Z,0.00
2023-03-04T01:57:24.648Z,0.00
2023-03-04T01:58:24.640Z,0.00
2023-03-04T01:59:24.618Z,0.00
2023-03-04T02:00:24.640Z,0.00
2023-03-04T02:01:24.636Z,0.00
2023-03-04T02:02:24.582Z,0.00
2023-03-04T02:03:24.578Z,0.00
2023-03-04T02:04:24.723Z,0.00
2023-03-04T02:05:24.575Z,0.00
2023-03-04T02:06:24.551Z,0.00
2023-03-04T02:07:24.541Z,0.00
2023-03-04T02:08:24.538Z,0.00
2023-03-04T02:09:24.510Z,0.00
2023-03-04T02:10:24.504Z,0.00
2023-03-04T02:11:24.485Z,0.00
2023-03-04T02:12:24.484Z,0.00
2023-03-04T02:13:24.464Z,0.00
2023-03-04T02:14:24.469Z,0.00
2023-03-04T02:15:24.462Z,0.00
2023-03-04T02:16:24.490Z,0.00
2023-03-04T02:17:24.431Z,0.00
2023-03-04T02:18:24.404Z,0.00
2023-03-04T02:19:24.399Z,0.00
2023-03-04T02:20:24.386Z,0.00
2023-03-04T02:21:24.380Z,0.00
2023-03-04T02:22:24.372Z,0.00
2023-03-04T02:23:24.362Z,0.00
2023-03-04T02:24:24.339Z,0.00
2023-03-04T02:25:24.332Z,0.00
2023-03-04T02:26:24.325Z,0.00
2023-03-04T02:27:24.305Z,0.00
2023-03-04T02:28:24.293Z,0.00
2023-03-04T02:29:24.289Z,0.00
2023-03-04T02:30:24.277Z,0.00
2023-03-04T02:31:24.377Z,0.00
2023-03-04T02:32:24.334Z,0.00
2023-03-04T02:33:24.249Z,0.00
2023-03-04T02:34:24.228Z,0.00
2023-03-04T02:35:24.258Z,0.00
2023-03-04T02:36:24.208Z,0.00
2023-03-04T02:37:24.203Z,0.00
2023-03-04T02:38:24.191Z,0.00
2023-03-04T02:39:24.178Z,0.00
2023-03-04T02:40:24.160Z,0.00
2023-03-04T02:41:24.158Z,0.00
2023-03-04T02:42:24.152Z,0.00
2023-03-04T02:43:24.124Z,0.00
2023-03-04T02:44:24.123Z,0.00
2023-03-04T02:45:24.112Z,0.00
2023-03-04T02:46:24.128Z,0.00
2023-03-04T02:47:24.085Z,0.00
2023-03-04T02:48:24.117Z,0.00
2023-03-04T02:49:24.065Z,0.00
2023-03-04T02:50:24.066Z,0.00
2023-03-04T02:51:24.046Z,0.00
2023-03-04T02:52:24.057Z,0.00
2023-03-04T02:53:24.022Z,0.00
2023-03-04T02:54:24.006Z,0.00
2023-03-04T02:55:23.999Z,0.00
2023-03-04T02:56:23.991Z,0.00
2023-03-04T02:57:23.978Z,0.00
2023-03-04T02:58:23.964Z,0.00
2023-03-04T02:59:23.958Z,0.00
2023-03-04T03:00:23.947Z,0.00
2023-03-04T03:01:23.969Z,0.00
2023-03-04T03:02:23.921Z,0.00
2023-03-04T03:03:23.910Z,0.00
2023-03-04T03:04:23.929Z,0.00
2023-03-04T03:05:23.891Z,0.00
2023-03-04T03:06:23.875Z,0.00
2023-03-04T03:07:23.859Z,0.00
2023-03-04T03:08:23.862Z,0.00
2023-03-04T03:09:23.840Z,0.00
2023-03-04T03:10:23.832Z,0.00
2023-03-04T03:11:24.830Z,0.00
2023-03-04T03:12:23.812Z,0.00
2023-03-04T03:13:23.801Z,0.00
2023-03-04T03:14:23.796Z,0.00
2023-03-04T03:15:23.771Z,0.00
2023-03-04T03:16:23.840Z,0.00
2023-03-04T03:17:23.757Z,0.00
2023-03-04T03:18:23.742Z,0.00
2023-03-04T03:19:23.742Z,0.00
2023-03-04T03:20:23.762Z,0.00
2023-03-04T03:21:23.706Z,0.00
2023-03-04T03:22:23.689Z,0.00
2023-03-04T03:23:23.686Z,0.00
2023-03-04T03:24:23.670Z,0.00
2023-03-04T03:25:23.671Z,0.00
2023-03-04T03:26:23.654Z,0.00
2023-03-04T03:27:23.639Z,0.00
2023-03-04T03:28:23.625Z,0.00
2023-03-04T03:29:23.620Z,0.00
2023-03-04T03:30:23.596Z,0.00
2023-03-04T03:31:23.632Z,0.00
2023-03-04T03:32:23.706Z,0.00
2023-03-04T03:33:23.570Z,0.00
2023-03-04T03:34:23.557Z,0.00
2023-03-04T03:35:23.563Z,0.00
2023-03-04T03:36:23.564Z,0.00
2023-03-04T03:37:23.532Z,0.00
2023-03-04T03:38:23.512Z,0.00
2023-03-04T03:39:23.499Z,0.00
2023-03-04T03:40:23.486Z,0.00
2023-03-04T03:41:23.479Z,0.00
2023-03-04T03:42:23.461Z,0.00
2023-03-04T03:43:23.462Z,0.00
2023-03-04T03:44:23.439Z,0.00
2023-03-04T03:45:23.441Z,0.00
2023-03-04T03:46:23.423Z,0.00
2023-03-04T03:47:23.412Z,0.00
2023-03-04T03:48:23.396Z,0.00
2023-03-04T03:49:23.404Z,0.00
2023-03-04T03:50:23.385Z,0.00
2023-03-04T03:51:23.367Z,0.00
2023-03-04T03:52:23.374Z,0.00
2023-03-04T03:53:23.340Z,0.00
2023-03-04T03:54:23.346Z,0.00
2023-03-04T03:55:23.329Z,0.00
2023-03-04T03:56:23.316Z,0.00
2023-03-04T03:57:23.300Z,0.00
2023-03-04T03:58:23.295Z,0.00
2023-03-04T03:59:23.285Z,0.00
2023-03-04T04:00:23.266Z,0.00
2023-03-04T04:01:23.258Z,0.00
2023-03-04T04:02:23.385Z,0.00
2023-03-04T04:03:23.236Z,0.00
2023-03-04T04:04:23.227Z,0.00
2023-03-04T04:05:23.211Z,0.00
2023-03-04T04:06:23.206Z,0.00
2023-03-04T04:07:23.184Z,0.00
2023-03-04T04:08:23.196Z,0.00
2023-03-04T04:09:23.168Z,0.00
2023-03-04T04:10:23.165Z,0.00
2023-03-04T04:11:23.144Z,0.00
2023-03-04T04:12:23.138Z,0.00
2023-03-04T04:13:23.114Z,0.00
2023-03-04T04:14:23.105Z,0.00
2023-03-04T04:15:23.100Z,0.00
2023-03-04T04:16:23.222Z,0.00
2023-03-04T04:17:23.080Z,0.00
2023-03-04T04:18:23.072Z,0.00
2023-03-04T04:19:23.050Z,0.00
2023-03-04T04:20:25.770Z,0.00
2023-03-04T04:21:23.036Z,0.00
2023-03-04T04:22:23.017Z,0.00
2023-03-04T04:23:23.030Z,0.00
2023-03-04T04:24:23.023Z,0.00
2023-03-04T04:25:22.987Z,0.00
2023-03-04T04:26:22.978Z,0.00
2023-03-04T04:27:22.968Z,0.00
2023-03-04T04:28:22.952Z,0.00
2023-03-04T04:29:22.945Z,0.00
2023-03-04T04:30:22.930Z,0.00
2023-03-04T04:31:22.937Z,0.00
2023-03-04T04:32:23.066Z,0.00
2023-03-04T04:33:22.894Z,0.00
2023-03-04T04:34:22.885Z,0.00
2023-03-04T04:35:22.906Z,0.00
2023-03-04T04:36:22.861Z,0.00
2023-03-04T04:37:22.845Z,0.00
2023-03-04T04:38:22.829Z,0.00
2023-03-04T04:39:22.832Z,0.00
2023-03-04T04:40:22.837Z,0.00
2023-03-04T04:41:22.811Z,0.00
2023-03-04T04:42:22.786Z,0.00
2023-03-04T04:43:22.797Z,0.00
2023-03-04T04:44:22.768Z,0.00
2023-03-04T04:45:22.756Z,0.00
2023-03-04T04:46:22.881Z,0.00
2023-03-04T04:47:22.736Z,0.00
2023-03-04T04:48:22.721Z,0.00
2023-03-04T04:49:22.712Z,0.00
2023-03-04T04:50:22.701Z,0.00
2023-03-04T04:51:22.681Z,0.00
2023-03-04T04:52:22.670Z,0.00
2023-03-04T04:53:22.716Z,0.00
2023-03-04T04:54:22.648Z,0.00
2023-03-04T04:55:22.637Z,0.00
2023-03-04T04:56:22.661Z,0.00
2023-03-04T04:57:22.613Z,0.00
2023-03-04T04:58:22.623Z,0.00
2023-03-04T04:59:22.601Z,0.00
2023-03-04T05:00:22.590Z,0.00
2023-03-04T05:01:22.627Z,0.00
2023-03-04T05:02:22.585Z,0.00
2023-03-04T05:03:23.660Z,0.00
2023-03-04T05:04:22.549Z,0.00
2023-03-04T05:05:22.531Z,0.00
2023-03-04T05:06:22.539Z,0.00
2023-03-04T05:07:22.512Z,0.00
2023-03-04T05:08:22.503Z,0.00
2023-03-04T05:09:22.483Z,0.00
2023-03-04T05:10:22.478Z,0.00
2023-03-04T05:11:22.482Z,0.00
2023-03-04T05:12:22.482Z,0.00
2023-03-04T05:13:22.443Z,0.00
2023-03-04T05:14:22.432Z,0.00
2023-03-04T05:15:22.417Z,0.00
2023-03-04T05:16:22.412Z,0.00
2023-03-04T05:17:22.402Z,0.00
2023-03-04T05:18:22.390Z,0.00
2023-03-04T05:19:22.386Z,0.00
2023-03-04T05:20:22.360Z,0.00
2023-03-04T05:21:22.353Z,0.00
2023-03-04T05:22:22.358Z,0.00
2023-03-04T05:23:22.327Z,0.00
2023-03-04T05:24:22.323Z,0.00
2023-03-04T05:25:22.328Z,0.00
2023-03-04T05:26:22.299Z,0.00
2023-03-04T05:27:22.288Z,0.00
2023-03-04T05:28:22.293Z,4.00
2023-03-04T05:29:22.266Z,4.00
2023-03-04T05:30:22.254Z,4.00
2023-03-04T05:31:22.324Z,0.00
2023-03-04T05:32:22.316Z,4.00
2023-03-04T05:33:22.221Z,4.00
2023-03-04T05:34:22.211Z,4.00
2023-03-04T05:35:22.226Z,4.00
2023-03-04T05:36:22.196Z,4.00
2023-03-04T05:37:22.177Z,4.00
2023-03-04T05:38:22.159Z,4.00
2023-03-04T05:39:22.154Z,4.00
2023-03-04T05:40:22.145Z,4.00
2023-03-04T05:41:22.130Z,8.00
2023-03-04T05:42:22.121Z,4.00
2023-03-04T05:43:22.116Z,8.00
2023-03-04T05:44:22.129Z,12.00
2023-03-04T05:45:22.088Z,8.00
2023-03-04T05:46:22.127Z,12.00
2023-03-04T05:47:22.070Z,12.00
2023-03-04T05:48:22.049Z,16.00
2023-03-04T05:49:22.036Z,16.00
2023-03-04T05:50:22.026Z,16.00
2023-03-04T05:51:22.031Z,16.00
2023-03-04T05:52:22.012Z,20.00
2023-03-04T05:53:22.003Z,20.00
2023-03-04T05:54:21.983Z,16.00
2023-03-04T05:55:21.979Z,16.00
2023-03-04T05:56:21.961Z,24.00
2023-03-04T05:57:21.955Z,20.00
2023-03-04T05:58:21.940Z,28.00
2023-03-04T05:59:21.925Z,28.00
2023-03-04T06:00:21.944Z,32.00
2023-03-04T06:01:21.906Z,32.00
2023-03-04T06:02:21.961Z,36.00
2023-03-04T06:03:21.890Z,32.00
2023-03-04T06:04:21.872Z,40.00
2023-03-04T06:05:21.863Z,44.00
2023-03-04T06:06:21.859Z,48.00
2023-03-04T06:07:21.845Z,48.00
2023-03-04T06:08:21.831Z,52.00
2023-03-04T06:09:21.811Z,56.00
2023-03-04T06:10:21.799Z,56.00
2023-03-04T06:11:21.790Z,60.00
2023-03-04T06:12:21.793Z,64.00
2023-03-04T06:13:21.769Z,80.00
2023-03-04T06:14:21.832Z,84.00
2023-03-04T06:15:23.749Z,92.00
2023-03-04T06:16:23.837Z,92.00
2023-03-04T06:17:21.760Z,84.00
2023-03-04T06:18:21.741Z,88.00
2023-03-04T06:19:21.719Z,92.00
2023-03-04T06:20:21.699Z,92.00
2023-03-04T06:21:21.682Z,104.00
2023-03-04T06:22:21.677Z,128.00
2023-03-04T06:23:21.666Z,116.00
2023-03-04T06:24:21.646Z,112.00
2023-03-04T06:25:21.643Z,120.00
2023-03-04T06:26:21.692Z,128.00
2023-03-04T06:27:21.608Z,144.00
2023-03-04T06:28:21.606Z,144.00
2023-03-04T06:29:21.586Z,140.00
2023-03-04T06:30:21.577Z,156.00
2023-03-04T06:31:21.603Z,164.00
2023-03-04T06:32:21.664Z,160.00
2023-03-04T06:33:21.547Z,176.00
2023-03-04T06:34:21.537Z,168.00
2023-03-04T06:35:21.557Z,164.00
2023-03-04T06:36:21.505Z,180.00
2023-03-04T06:37:21.507Z,156.00
2023-03-04T06:38:21.482Z,204.00
2023-03-04T06:39:21.475Z,236.00
2023-03-04T06:40:21.461Z,228.00
2023-03-04T06:41:21.460Z,244.00
2023-03-04T06:42:21.447Z,276.00
2023-03-04T06:43:21.426Z,268.00
2023-03-04T06:44:21.423Z,292.00
2023-03-04T06:45:21.418Z,300.00
2023-03-04T06:46:21.448Z,324.00
2023-03-04T06:47:21.397Z,296.00
2023-03-04T06:48:21.397Z,252.00
2023-03-04T06:49:21.368Z,244.00
2023-03-04T06:50:21.367Z,252.00
2023-03-04T06:51:21.340Z,316.00
2023-03-04T06:52:21.329Z,348.00
2023-03-04T06:53:21.343Z,340.00
2023-03-04T06:54:21.319Z,360.00
2023-03-04T06:55:21.301Z,348.00
2023-03-04T06:56:21.279Z,372.00
2023-03-04T06:57:21.269Z,432.00
2023-03-04T06:58:21.275Z,392.00
2023-03-04T06:59:21.253Z,304.00
2023-03-04T07:00:21.246Z,304.00
2023-03-04T07:01:21.227Z,328.00
2023-03-04T07:02:21.222Z,396.00
2023-03-04T07:03:21.199Z,484.00
2023-03-04T07:04:21.243Z,452.00
2023-03-04T07:05:21.182Z,476.00
2023-03-04T07:06:21.173Z,424.00
2023-03-04T07:07:21.159Z,360.00
2023-03-04T07:08:22.112Z,328.00
2023-03-04T07:09:21.139Z,304.00
2023-03-04T07:10:21.145Z,248.00
2023-03-04T07:11:21.111Z,220.00
2023-03-04T07:12:21.113Z,264.00
2023-03-04T07:13:21.098Z,252.00
2023-03-04T07:14:23.732Z,228.00
2023-03-04T07:15:21.077Z,260.00
2023-03-04T07:16:21.100Z,280.00
2023-03-04T07:17:21.047Z,276.00
2023-03-04T07:18:21.038Z,228.00
2023-03-04T07:19:21.027Z,236.00
2023-03-04T07:20:21.032Z,204.00
2023-03-04T07:21:21.005Z,304.00
2023-03-04T07:22:20.987Z,336.00
2023-03-04T07:23:20.984Z,364.00
2023-03-04T07:24:20.964Z,376.00
2023-03-04T07:25:20.954Z,412.00
2023-03-04T07:26:20.956Z,544.00
2023-03-04T07:27:20.933Z,700.00
2023-03-04T07:28:20.924Z,612.00
2023-03-04T07:29:20.916Z,716.00
2023-03-04T07:30:20.904Z,688.00
2023-03-04T07:31:20.970Z,540.00
2023-03-04T07:32:21.042Z,576.00
2023-03-04T07:33:20.897Z,628.00
2023-03-04T07:34:20.856Z,772.00
2023-03-04T07:35:20.873Z,676.00
2023-03-04T07:36:20.857Z,588.00
2023-03-04T07:37:20.833Z,772.00
2023-03-04T07:38:20.807Z,860.00
2023-03-04T07:39:20.803Z,1036.00
2023-03-04T07:40:20.789Z,752.00
2023-03-04T07:41:20.774Z,728.00
2023-03-04T07:42:20.762Z,712.00
2023-03-04T07:43:20.763Z,644.00
2023-03-04T07:44:20.751Z,584.00
2023-03-04T07:45:20.734Z,620.00
2023-03-04T07:46:20.731Z,504.00
2023-03-04T07:47:20.719Z,500.00
2023-03-04T07:48:20.705Z,572.00
2023-03-04T07:49:20.685Z,644.00
2023-03-04T07:50:20.672Z,532.00
2023-03-04T07:51:20.665Z,576.00
2023-03-04T07:52:20.674Z,740.00
2023-03-04T07:53:20.648Z,804.00
2023-03-04T07:54:20.641Z,696.00
2023-03-04T07:55:20.616Z,756.00
2023-03-04T07:56:20.625Z,936.00
2023-03-04T07:57:20.603Z,952.00
2023-03-04T07:58:20.590Z,884.00
2023-03-04T07:59:20.579Z,820.00
2023-03-04T08:00:20.568Z,848.00
2023-03-04T08:01:20.573Z,876.00
2023-03-04T08:02:20.583Z,900.00
2023-03-04T08:03:20.537Z,868.00
2023-03-04T08:04:20.557Z,876.00
2023-03-04T08:05:20.527Z,876.00
2023-03-04T08:06:20.506Z,868.00
2023-03-04T08:07:20.492Z,724.00
2023-03-04T08:08:20.510Z,772.00
2023-03-04T08:09:20.463Z,804.00
2023-03-04T08:10:20.456Z,756.00
2023-03-04T08:11:20.461Z,724.00
2023-03-04T08:12:20.442Z,776.00
2023-03-04T08:13:20.432Z,812.00
2023-03-04T08:14:20.437Z,724.00
2023-03-04T08:15:20.410Z,608.00
2023-03-04T08:16:20.431Z,620.00
2023-03-04T08:17:20.397Z,676.00
2023-03-04T08:18:20.365Z,744.00
2023-03-04T08:19:20.358Z,844.00
2023-03-04T08:20:20.344Z,904.00
2023-03-04T08:21:20.336Z,1000.00
2023-03-04T08:22:20.323Z,1004.00
2023-03-04T08:23:20.308Z,844.00
2023-03-04T08:24:20.343Z,872.00
2023-03-04T08:25:20.329Z,840.00
2023-03-04T08:26:20.280Z,820.00
2023-03-04T08:27:20.260Z,776.00
2023-03-04T08:28:20.248Z,776.00
2023-03-04T08:29:20.246Z,784.00
2023-03-04T08:30:20.228Z,756.00
2023-03-04T08:31:20.343Z,760.00
2023-03-04T08:32:20.361Z,748.00
2023-03-04T08:33:20.205Z,728.00
2023-03-04T08:34:20.197Z,736.00
2023-03-04T08:35:20.214Z,748.00
2023-03-04T08:36:20.172Z,768.00
2023-03-04T08:37:20.152Z,776.00
2023-03-04T08:38:20.148Z,756.00
2023-03-04T08:39:20.136Z,868.00
2023-03-04T08:40:20.151Z,860.00
2023-03-04T08:41:20.120Z,952.00
2023-03-04T08:42:20.100Z,1008.00
2023-03-04T08:43:20.090Z,1072.00
2023-03-04T08:44:20.087Z,1116.00
2023-03-04T08:45:20.069Z,1116.00
2023-03-04T08:46:20.130Z,1152.00
2023-03-04T08:47:20.037Z,1148.00
2023-03-04T08:48:20.033Z,1072.00
2023-03-04T08:49:20.026Z,1140.00
2023-03-04T08:50:22.322Z,1220.00
2023-03-04T08:51:20.002Z,1184.00
2023-03-04T08:52:19.987Z,1232.00
2023-03-04T08:53:19.988Z,1164.00
2023-03-04T08:54:19.970Z,1240.00
2023-03-04T08:55:19.954Z,1352.00
2023-03-04T08:56:19.973Z,1356.00
2023-03-04T08:57:19.956Z,1252.00
2023-03-04T08:58:19.945Z,1404.00
2023-03-04T08:59:19.922Z,1572.00
2023-03-04T09:00:19.898Z,1532.00
2023-03-04T09:01:19.943Z,1372.00
2023-03-04T09:02:19.914Z,1368.00
2023-03-04T09:03:19.926Z,1344.00
2023-03-04T09:04:19.873Z,1560.00
2023-03-04T09:05:19.868Z,1456.00
2023-03-04T09:06:19.837Z,1496.00
2023-03-04T09:07:19.838Z,1444.00
2023-03-04T09:08:19.819Z,1360.00
2023-03-04T09:09:19.808Z,1452.00
2023-03-04T09:10:19.799Z,1484.00
2023-03-04T09:11:19.798Z,1452.00
2023-03-04T09:12:19.800Z,1456.00
2023-03-04T09:13:19.756Z,1484.00
2023-03-04T09:14:19.757Z,1460.00
2023-03-04T09:15:19.739Z,1628.00
2023-03-04T09:16:19.791Z,1608.00
2023-03-04T09:17:19.712Z,1604.00
2023-03-04T09:18:19.708Z,1528.00
2023-03-04T09:19:19.700Z,1400.00
2023-03-04T09:20:19.697Z,1348.00
2023-03-04T09:21:19.669Z,1528.00
2023-03-04T09:22:19.668Z,1664.00
2023-03-04T09:23:19.654Z,1440.00
2023-03-04T09:24:19.641Z,1368.00
2023-03-04T09:25:19.636Z,1196.00
2023-03-04T09:26:19.612Z,1044.00
2023-03-04T09:27:19.608Z,1052.00
2023-03-04T09:28:19.614Z,1080.00
2023-03-04T09:29:19.595Z,1044.00
2023-03-04T09:30:19.571Z,1024.00
2023-03-04T09:31:19.585Z,936.00
2023-03-04T09:32:19.671Z,828.00
2023-03-04T09:33:19.533Z,852.00
2023-03-04T09:34:19.521Z,772.00
2023-03-04T09:35:19.561Z,856.00
2023-03-04T09:36:19.580Z,1092.00
2023-03-04T09:37:19.495Z,1048.00
2023-03-04T09:38:19.486Z,1044.00
2023-03-04T09:39:19.469Z,996.00
2023-03-04T09:40:19.469Z,1108.00
2023-03-04T09:41:19.450Z,1156.00
2023-03-04T09:42:19.432Z,1328.00
2023-03-04T09:43:19.422Z,1320.00
2023-03-04T09:44:19.452Z,1376.00
2023-03-04T09:45:19.400Z,1536.00
2023-03-04T09:46:19.453Z,1420.00
2023-03-04T09:47:19.386Z,1392.00
2023-03-04T09:48:19.372Z,1328.00
2023-03-04T09:49:19.364Z,1156.00
2023-03-04T09:50:19.350Z,1204.00
2023-03-04T09:51:19.331Z,1336.00
2023-03-04T09:52:19.335Z,1364.00
2023-03-04T09:53:19.308Z,1260.00
2023-03-04T09:54:19.297Z,1244.00
2023-03-04T09:55:19.284Z,1284.00
2023-03-04T09:56:19.280Z,1368.00
2023-03-04T09:57:19.272Z,1308.00
2023-03-04T09:58:19.268Z,1304.00
2023-03-04T09:59:19.254Z,1488.00
2023-03-04T10:00:19.320Z,1560.00
2023-03-04T10:01:19.220Z,1640.00
2023-03-04T10:02:19.213Z,1728.00
2023-03-04T10:03:19.289Z,1628.00
2023-03-04T10:04:19.269Z,1512.00
2023-03-04T10:05:19.171Z,1488.00
2023-03-04T10:06:19.166Z,1416.00
2023-03-04T10:07:19.144Z,1240.00
2023-03-04T10:08:19.148Z,1320.00
2023-03-04T10:09:19.135Z,1216.00
2023-03-04T10:10:19.142Z,1204.00
2023-03-04T10:11:19.097Z,1532.00
2023-03-04T10:12:19.092Z,1836.00
2023-03-04T10:13:19.086Z,1688.00
2023-03-04T10:14:19.073Z,1888.00
2023-03-04T10:15:19.076Z,1684.00
2023-03-04T10:16:19.119Z,1520.00
2023-03-04T10:17:19.033Z,1424.00
2023-03-04T10:18:20.590Z,1356.00
2023-03-04T10:19:19.013Z,1552.00
2023-03-04T10:20:19.004Z,1496.00
2023-03-04T10:21:18.995Z,1548.00
2023-03-04T10:22:19.000Z,1528.00
2023-03-04T10:23:18.966Z,1404.00
2023-03-04T10:24:18.972Z,1360.00
2023-03-04T10:25:18.954Z,1396.00
2023-03-04T10:26:18.925Z,1408.00
2023-03-04T10:27:18.924Z,1320.00
2023-03-04T10:28:18.910Z,1592.00
2023-03-04T10:29:18.900Z,2140.00
2023-03-04T10:30:18.909Z,1804.00
2023-03-04T10:31:18.970Z,1756.00
2023-03-04T10:32:19.012Z,1840.00
2023-03-04T10:33:18.853Z,1816.00
2023-03-04T10:34:18.827Z,1892.00
2023-03-04T10:35:20.435Z,2240.00
2023-03-04T10:36:18.832Z,2292.00
2023-03-04T10:37:18.803Z,2252.00
2023-03-04T10:38:18.797Z,2456.00
2023-03-04T10:39:18.773Z,3084.00
2023-03-04T10:40:18.761Z,4296.00
2023-03-04T10:41:18.752Z,4000.00
2023-03-04T10:42:18.927Z,3032.00
2023-03-04T10:43:18.762Z,2832.00
2023-03-04T10:44:18.731Z,2208.00
2023-03-04T10:45:18.702Z,1864.00
2023-03-04T10:46:18.708Z,2100.00
2023-03-04T10:47:18.680Z,1764.00
2023-03-04T10:48:18.691Z,1520.00
2023-03-04T10:49:18.663Z,1380.00
2023-03-04T10:50:18.639Z,1344.00
2023-03-04T10:51:18.636Z,1328.00
2023-03-04T10:52:18.635Z,1312.00
2023-03-04T10:53:18.604Z,1588.00
2023-03-04T10:54:18.597Z,1476.00
2023-03-04T10:55:18.615Z,1516.00
2023-03-04T10:56:18.575Z,1444.00
2023-03-04T10:57:18.565Z,1360.00
2023-03-04T10:58:18.588Z,1232.00
2023-03-04T10:59:18.538Z,1252.00
2023-03-04T11:00:18.589Z,1288.00
2023-03-04T11:01:18.553Z,1224.00
2023-03-04T11:02:18.499Z,1168.00
2023-03-04T11:03:18.492Z,1212.00
2023-03-04T11:04:18.507Z,1164.00
2023-03-04T11:05:18.466Z,1268.00
2023-03-04T11:06:18.456Z,1312.00
2023-03-04T11:07:18.483Z,1280.00
2023-03-04T11:08:18.444Z,1368.00
2023-03-04T11:09:18.423Z,1304.00
2023-03-04T11:10:18.423Z,1272.00
2023-03-04T11:11:18.398Z,1380.00
2023-03-04T11:12:18.390Z,1268.00
2023-03-04T11:13:18.374Z,1252.00
2023-03-04T11:14:18.368Z,1360.00
2023-03-04T11:15:18.354Z,1380.00
2023-03-04T11:16:18.386Z,1400.00
2023-03-04T11:17:18.348Z,1444.00
2023-03-04T11:18:18.335Z,1484.00
2023-03-04T11:19:18.755Z,2184.00
2023-03-04T11:20:18.320Z,2712.00
2023-03-04T11:21:18.285Z,2784.00
2023-03-04T11:22:18.278Z,2512.00
2023-03-04T11:23:18.253Z,2056.00
2023-03-04T11:24:29.672Z,1872.00
2023-03-04T11:25:18.229Z,1900.00
2023-03-04T11:26:18.228Z,2736.00
2023-03-04T11:27:18.213Z,2192.00
2023-03-04T11:28:18.195Z,1808.00
2023-03-04T11:29:18.195Z,1608.00
2023-03-04T11:30:18.181Z,1492.00
2023-03-04T11:31:18.167Z,1580.00
2023-03-04T11:32:18.358Z,1724.00
2023-03-04T11:33:18.157Z,2268.00
2023-03-04T11:34:18.134Z,3976.00
2023-03-04T11:35:18.184Z,3032.00
2023-03-04T11:36:18.140Z,3204.00
2023-03-04T11:37:18.131Z,2980.00
2023-03-04T11:38:18.110Z,2392.00
2023-03-04T11:39:18.089Z,2044.00
2023-03-04T11:40:18.082Z,1648.00
2023-03-04T11:41:18.066Z,1416.00
2023-03-04T11:42:18.074Z,1116.00
2023-03-04T11:43:18.073Z,932.00
2023-03-04T11:44:18.051Z,856.00
2023-03-04T11:45:28.388Z,824.00
2023-03-04T11:46:18.052Z,852.00
2023-03-04T11:47:18.009Z,832.00
2023-03-04T11:48:18.012Z,816.00
2023-03-04T11:49:17.995Z,940.00
2023-03-04T11:50:18.069Z,896.00
2023-03-04T11:51:17.975Z,848.00
2023-03-04T11:52:17.986Z,880.00
2023-03-04T11:53:17.974Z,884.00
2023-03-04T11:54:17.982Z,1188.00
2023-03-04T11:55:18.139Z,1048.00
2023-03-04T11:56:17.953Z,968.00
2023-03-04T11:57:17.899Z,904.00
2023-03-04T11:58:17.895Z,1012.00
2023-03-04T11:59:17.892Z,928.00
2023-03-04T12:00:17.963Z,948.00
2023-03-04T12:01:17.857Z,1092.00
2023-03-04T12:02:17.848Z,980.00
2023-03-04T12:03:18.435Z,892.00
2023-03-04T12:04:18.026Z,832.00
2023-03-04T12:05:18.438Z,804.00
2023-03-04T12:06:18.312Z,740.00
2023-03-04T12:07:17.792Z,780.00
2023-03-04T12:08:18.479Z,840.00
2023-03-04T12:09:18.256Z,884.00
2023-03-04T12:10:18.314Z,904.00
2023-03-04T12:11:18.137Z,848.00
2023-03-04T12:12:18.260Z,892.00
2023-03-04T12:13:18.283Z,1024.00
2023-03-04T12:14:20.314Z,1012.00
2023-03-04T12:15:18.187Z,984.00
2023-03-04T12:16:18.261Z,1192.00
2023-03-04T12:17:18.224Z,1368.00
2023-03-04T12:18:18.151Z,1500.00
2023-03-04T12:19:18.323Z,1520.00
2023-03-04T12:20:17.792Z,1288.00
2023-03-04T12:21:18.229Z,1424.00
2023-03-04T12:22:18.084Z,1484.00
2023-03-04T12:23:18.074Z,1484.00
2023-03-04T12:24:18.171Z,1628.00
2023-03-04T12:25:19.320Z,1896.00
2023-03-04T12:26:18.110Z,2056.00
2023-03-04T12:27:18.128Z,1996.00
2023-03-04T12:28:18.056Z,1828.00
2023-03-04T12:29:17.924Z,1780.00
2023-03-04T12:30:17.667Z,1696.00
2023-03-04T12:31:19.059Z,1932.00
2023-03-04T12:32:17.604Z,2180.00
2023-03-04T12:33:18.127Z,2448.00
2023-03-04T12:34:17.491Z,2492.00
2023-03-04T12:35:17.474Z,2496.00
2023-03-04T12:36:17.471Z,2400.00
2023-03-04T12:37:17.950Z,2164.00
2023-03-04T12:38:17.441Z,1980.00
2023-03-04T12:39:17.445Z,1980.00
2023-03-04T12:40:17.619Z,1908.00
2023-03-04T12:41:17.426Z,1784.00
2023-03-04T12:42:17.425Z,1696.00
2023-03-04T12:43:17.384Z,1696.00
2023-03-04T12:44:18.078Z,1640.00